Time,TemperatureF,DewpointF,PressureIn,WindDirection,WindDirectionDegrees,WindSpeedMPH,WindSpeedGustMPH,Humidity,HourlyPrecipIn,Conditions,Clouds,dailyrainin,SoftwareType,DateUTC
2013-01-07 00:05:00,48.9,39.2,30.72,NW,308,7.0,7.0,70,0.00,RA,OVC,0.00,Misterhouse,2013-01-07 08:05:00,
2013-01-07 00:10:00,49.3,41.0,30.72,WNW,300,6.0,6.0,72,0.00,RA,OVC,0.00,Misterhouse,2013-01-07 08:10:00,
2013-01-07 00:15:00,49.5,41.0,30.72,NW,313,5.0,6.0,72,0.00,RA,OVC,0.00,Misterhouse,2013-01-07 08:15:00,
2013-01-07 00:20:00,49.8,41.0,30.72,WNW,297,6.0,6.0,73,0.00,RA,OVC,0.00,Misterhouse,2013-01-07 08:20:00,
2013-01-07 00:25:00,50.0,42.8,30.72,WNW,293,6.0,6.0,74,0.00,RA,OVC,0.00,Misterhouse,2013-01-07 08:25:00,
2013-01-07 00:35:00,50.4,42.8,30.72,NW,314,6.0,6.0,74,0.00,RA,OVC,0.00,Misterhouse,2013-01-07 08:35:00,
2013-01-07 00:40:00,50.2,42.8,30.72,NW,304,4.0,5.0,75,0.00,RA,OVC,0.00,Misterhouse,2013-01-07 08:40:00,
2013-01-07 00:45:00,50.2,42.8,30.72,NW,314,6.0,6.0,74,0.00,RA,OVC,0.00,Misterhouse,2013-01-07 08:45:00,
2013-01-07 00:50:00,50.0,42.8,30.72,NW,307,5.0,6.0,74,0.00,RA,OVC,0.00,Misterhouse,2013-01-07 08:50:00,
2013-01-07 00:55:00,49.8,42.8,30.72,NW,309,4.0,4.0,74,0.00,RA,OVC,0.00,Misterhouse,2013-01-07 08:55:00,
2013-01-07 01:05:00,49.5,42.8,30.72,NW,310,5.0,8.0,74,0.00,RA,OVC,0.00,Misterhouse,2013-01-07 09:05:00,
2013-01-07 01:10:00,49.5,42.8,30.72,WNW,291,5.0,6.0,74,0.00,RA,OVC,0.00,Misterhouse,2013-01-07 09:10:00,
2013-01-07 01:15:00,49.5,42.8,30.72,WNW,298,4.0,4.0,74,0.00,RA,OVC,0.00,Misterhouse,2013-01-07 09:15:00,
2013-01-07 01:20:00,49.1,41.0,30.72,WNW,300,2.0,4.0,73,0.00,RA,OVC,0.00,Misterhouse,2013-01-07 09:20:00,
2013-01-07 01:30:00,48.9,41.0,30.72,NW,305,4.0,4.0,74,0.00,RA,OVC,0.00,Misterhouse,2013-01-07 09:30:00,
2013-01-07 01:35:00,48.9,41.0,30.72,NW,305,3.0,3.0,74,0.00,RA,OVC,0.00,Misterhouse,2013-01-07 09:35:00,
2013-01-07 01:40:00,48.7,39.2,30.72,NW,305,0.0,3.0,73,0.00,RA,OVC,0.00,Misterhouse,2013-01-07 09:40:00,
2013-01-07 01:45:00,48.7,39.2,30.72,NW,305,0.0,0.0,73,0.00,RA,OVC,0.00,Misterhouse,2013-01-07 09:45:00,
2013-01-07 01:50:00,49.1,42.8,30.72,NW,311,3.0,3.0,74,0.00,RA,OVC,0.00,Misterhouse,2013-01-07 09:50:00,
2013-01-07 01:55:00,49.5,42.8,30.72,NW,320,3.0,5.0,74,0.00,RA,OVC,0.00,Misterhouse,2013-01-07 09:55:00,
2013-01-07 02:00:00,49.5,41.0,30.72,NNW,332,3.0,5.0,73,0.00,RA,OVC,0.00,Misterhouse,2013-01-07 10:00:00,
2013-01-07 02:05:00,49.3,41.0,30.72,WNW,302,0.0,0.0,73,0.00,RA,OVC,0.00,Misterhouse,2013-01-07 10:05:00,
2013-01-07 02:10:00,48.7,39.2,30.72,WNW,294,2.0,4.0,72,0.00,RA,OVC,0.00,Misterhouse,2013-01-07 10:10:00,
2013-01-07 02:15:00,48.6,39.2,30.72,WNW,299,4.0,4.0,72,0.00,RA,OVC,0.00,Misterhouse,2013-01-07 10:15:00,
2013-01-07 02:20:00,48.6,39.2,30.72,WNW,297,4.0,4.0,72,0.00,RA,OVC,0.00,Misterhouse,2013-01-07 10:20:00,
2013-01-07 02:25:00,48.6,39.2,30.72,NW,316,4.0,4.0,72,0.00,RA,OVC,0.00,Misterhouse,2013-01-07 10:25:00,
2013-01-07 02:30:00,48.6,39.2,30.72,NW,316,4.0,4.0,72,0.00,RA,OVC,0.00,Misterhouse,2013-01-07 10:30:00,
2013-01-07 02:35:00,48.4,39.2,30.72,NW,316,3.0,3.0,72,0.00,RA,OVC,0.00,Misterhouse,2013-01-07 10:35:00,
2013-01-07 02:40:00,48.0,39.2,30.72,NW,317,4.0,4.0,72,0.00,RA,OVC,0.00,Misterhouse,2013-01-07 10:40:00,
2013-01-07 02:45:00,48.2,39.2,30.72,NW,318,4.0,5.0,72,0.00,RA,OVC,0.00,Misterhouse,2013-01-07 10:45:00,
2013-01-07 02:50:00,48.4,39.2,30.72,NW,326,5.0,6.0,73,0.00,RA,OVC,0.00,Misterhouse,2013-01-07 10:50:00,
2013-01-07 02:55:00,48.4,39.2,30.72,NW,315,3.0,4.0,72,0.00,RA,OVC,0.00,Misterhouse,2013-01-07 10:55:00,
2013-01-07 03:00:00,48.0,39.2,30.72,NW,319,3.0,3.0,72,0.00,RA,OVC,0.00,Misterhouse,2013-01-07 11:00:00,
2013-01-07 03:10:00,47.7,39.2,30.72,NW,322,2.0,3.0,72,0.00,RA,OVC,0.00,Misterhouse,2013-01-07 11:10:00,
2013-01-07 03:15:00,47.5,39.2,30.72,NW,322,3.0,3.0,72,0.00,RA,OVC,0.00,Misterhouse,2013-01-07 11:15:00,
2013-01-07 03:25:00,47.5,41.0,30.72,NNW,332,4.0,4.0,74,0.00,RA,OVC,0.00,Misterhouse,2013-01-07 11:25:00,
2013-01-07 03:30:00,48.2,41.0,30.72,NNW,328,3.0,3.0,74,0.00,RA,OVC,0.00,Misterhouse,2013-01-07 11:30:00,
2013-01-07 03:35:00,48.2,41.0,30.72,NNW,328,4.0,4.0,74,0.00,RA,OVC,0.00,Misterhouse,2013-01-07 11:35:00,
2013-01-07 03:40:00,48.2,41.0,30.72,NNW,328,2.0,3.0,74,0.00,RA,OVC,0.00,Misterhouse,2013-01-07 11:40:00,
2013-01-07 03:45:00,48.2,41.0,30.72,NNW,328,0.0,0.0,74,0.00,RA,OVC,0.00,Misterhouse,2013-01-07 11:45:00,
2013-01-07 03:50:00,48.2,41.0,30.72,NNW,328,4.0,4.0,74,0.00,RA,OVC,0.00,Misterhouse,2013-01-07 11:50:00,
2013-01-07 03:55:00,47.8,41.0,30.72,NNW,328,0.0,0.0,75,0.00,RA,OVC,0.00,Misterhouse,2013-01-07 11:55:00,
2013-01-07 04:00:00,47.5,41.0,30.72,NNW,328,0.0,0.0,74,0.00,RA,OVC,0.00,Misterhouse,2013-01-07 12:00:00,
2013-01-07 04:05:00,47.3,41.0,30.72,NNW,328,3.0,0.0,74,0.00,RA,OVC,0.00,Misterhouse,2013-01-07 12:05:00,
2013-01-07 04:10:00,47.5,41.0,30.72,NNW,328,0.0,0.0,75,0.00,RA,OVC,0.00,Misterhouse,2013-01-07 12:10:00,
2013-01-07 04:15:00,47.5,41.0,30.72,NNW,328,0.0,0.0,75,0.00,RA,OVC,0.00,Misterhouse,2013-01-07 12:15:00,
2013-01-07 04:20:00,47.3,41.0,30.72,NNW,328,0.0,0.0,75,0.00,RA,OVC,0.00,Misterhouse,2013-01-07 12:20:00,
2013-01-07 04:25:00,47.1,39.2,30.72,NNW,328,0.0,0.0,75,0.00,RA,OVC,0.00,Misterhouse,2013-01-07 12:25:00,
2013-01-07 04:30:00,47.1,39.2,30.72,NNW,328,0.0,0.0,75,0.00,RA,OVC,0.00,Misterhouse,2013-01-07 12:30:00,
2013-01-07 04:40:00,46.9,39.2,30.72,NNW,328,0.0,0.0,76,0.00,RA,OVC,0.00,Misterhouse,2013-01-07 12:40:00,
2013-01-07 04:45:00,47.1,39.2,30.72,NNW,328,0.0,0.0,76,0.00,RA,OVC,0.00,Misterhouse,2013-01-07 12:45:00,
2013-01-07 04:55:00,47.7,41.0,30.72,NNW,328,0.0,0.0,77,0.00,RA,OVC,0.00,Misterhouse,2013-01-07 12:55:00,
2013-01-07 05:00:00,48.0,42.8,30.72,NW,321,0.0,0.0,79,0.00,RA,OVC,0.00,Misterhouse,2013-01-07 13:00:00,
2013-01-07 05:10:00,48.2,41.0,30.75,WSW,252,3.0,3.0,78,0.00,BC,SCT,0.00,Misterhouse,2013-01-07 13:10:00,
2013-01-07 05:15:00,48.0,41.0,30.75,WSW,252,0.0,0.0,78,0.00,BC,SCT,0.00,Misterhouse,2013-01-07 13:15:00,
2013-01-07 05:20:00,48.0,41.0,30.75,WSW,252,0.0,0.0,77,0.00,BC,SCT,0.00,Misterhouse,2013-01-07 13:20:00,
2013-01-07 05:25:00,48.0,41.0,30.75,WSW,252,0.0,0.0,76,0.00,BC,SCT,0.00,Misterhouse,2013-01-07 13:25:00,
2013-01-07 05:30:00,47.7,41.0,30.75,WSW,252,0.0,0.0,76,0.00,BC,SCT,0.00,Misterhouse,2013-01-07 13:30:00,
2013-01-07 05:40:00,44.6,32.0,30.75,West,264,4.0,4.0,63,0.00,BC,SCT,0.00,Misterhouse,2013-01-07 13:40:00,
2013-01-07 05:45:00,44.1,32.0,30.75,WSW,245,4.0,4.0,62,0.00,BC,SCT,0.00,Misterhouse,2013-01-07 13:45:00,
2013-01-07 05:55:00,39.6,32.0,30.75,West,271,4.0,4.0,64,0.00,BC,SCT,0.00,Misterhouse,2013-01-07 13:55:00,
2013-01-07 06:00:00,39.7,32.0,30.75,WSW,247,7.0,7.0,65,0.00,BC,SCT,0.00,Misterhouse,2013-01-07 14:00:00,
2013-01-07 06:10:00,39.7,32.0,30.78,West,260,4.0,7.0,66,0.00,BC,SCT,0.00,Misterhouse,2013-01-07 14:10:00,
2013-01-07 06:15:00,39.7,32.0,30.78,West,277,4.0,9.0,66,0.00,BC,SCT,0.00,Misterhouse,2013-01-07 14:15:00,
2013-01-07 06:25:00,40.3,32.0,30.78,West,259,7.0,8.0,68,0.00,BC,SCT,0.00,Misterhouse,2013-01-07 14:25:00,
2013-01-07 06:30:00,40.6,32.0,30.78,WNW,284,8.0,8.0,70,0.00,BC,SCT,0.00,Misterhouse,2013-01-07 14:30:00,
2013-01-07 06:40:00,40.8,32.0,30.78,WNW,287,7.0,7.0,71,0.00,BC,SCT,0.00,Misterhouse,2013-01-07 14:40:00,
2013-01-07 06:45:00,41.0,32.0,30.78,West,281,6.0,8.0,71,0.00,BC,SCT,0.00,Misterhouse,2013-01-07 14:45:00,
2013-01-07 06:55:00,41.2,32.0,30.78,WNW,300,5.0,6.0,72,0.00,BC,SCT,0.00,Misterhouse,2013-01-07 14:55:00,
2013-01-07 07:00:00,41.2,32.0,30.78,WSW,254,4.0,4.0,72,0.00,BC,SCT,0.00,Misterhouse,2013-01-07 15:00:00,
2013-01-07 07:10:00,41.0,32.0,30.78,West,262,5.0,6.0,69,0.00,BC,SCT,0.00,Misterhouse,2013-01-07 15:10:00,
2013-01-07 07:15:00,40.6,32.0,30.78,West,277,5.0,5.0,67,0.00,BC,SCT,0.00,Misterhouse,2013-01-07 15:15:00,
2013-01-07 07:20:00,40.5,32.0,30.78,West,265,4.0,5.0,66,0.00,BC,SCT,0.00,Misterhouse,2013-01-07 15:20:00,
2013-01-07 07:25:00,40.3,32.0,30.78,West,262,4.0,4.0,65,0.00,BC,SCT,0.00,Misterhouse,2013-01-07 15:25:00,
2013-01-07 07:30:00,39.9,32.0,30.78,SW,233,0.0,0.0,66,0.00,BC,SCT,0.00,Misterhouse,2013-01-07 15:30:00,
2013-01-07 07:35:00,40.3,32.0,30.78,West,267,4.0,4.0,68,0.00,BC,SCT,0.00,Misterhouse,2013-01-07 15:35:00,
2013-01-07 07:40:00,40.3,32.0,30.78,WSW,250,4.0,6.0,63,0.00,BC,SCT,0.00,Misterhouse,2013-01-07 15:40:00,
2013-01-07 07:45:00,39.9,32.0,30.78,West,269,6.0,6.0,57,0.00,BC,SCT,0.00,Misterhouse,2013-01-07 15:45:00,
2013-01-07 07:50:00,39.7,32.0,30.78,West,262,3.0,4.0,55,0.00,BC,SCT,0.00,Misterhouse,2013-01-07 15:50:00,
2013-01-07 07:55:00,39.7,32.0,30.78,WSW,238,5.0,6.0,54,0.00,BC,SCT,0.00,Misterhouse,2013-01-07 15:55:00,
2013-01-07 08:00:00,39.7,32.0,30.78,WSW,249,5.0,5.0,53,0.00,BC,SCT,0.00,Misterhouse,2013-01-07 16:00:00,
2013-01-07 08:05:00,39.6,32.0,30.81,West,263,5.0,5.0,50,0.00,BC,SCT,0.00,Misterhouse,2013-01-07 16:05:00,
2013-01-07 08:10:00,39.4,32.0,30.81,WSW,241,4.0,5.0,48,0.00,BC,SCT,0.00,Misterhouse,2013-01-07 16:10:00,
2013-01-07 08:15:00,39.4,32.0,30.81,West,272,5.0,6.0,44,0.00,BC,SCT,0.00,Misterhouse,2013-01-07 16:15:00,
2013-01-07 08:20:00,39.6,32.0,30.81,WSW,245,5.0,5.0,43,0.00,BC,SCT,0.00,Misterhouse,2013-01-07 16:20:00,
2013-01-07 08:25:00,39.6,32.0,30.81,WSW,247,6.0,8.0,42,0.00,BC,SCT,0.00,Misterhouse,2013-01-07 16:25:00,
2013-01-07 08:30:00,39.7,32.0,30.81,WNW,288,4.0,4.0,42,0.00,BC,SCT,0.00,Misterhouse,2013-01-07 16:30:00,
2013-01-07 08:35:00,39.9,32.0,30.81,WNW,292,4.0,6.0,43,0.00,BC,SCT,0.00,Misterhouse,2013-01-07 16:35:00,
2013-01-07 08:40:00,40.3,32.0,30.81,West,274,4.0,4.0,45,0.00,BC,SCT,0.00,Misterhouse,2013-01-07 16:40:00,
2013-01-07 08:45:00,40.3,32.0,30.81,WSW,247,4.0,5.0,45,0.00,BC,SCT,0.00,Misterhouse,2013-01-07 16:45:00,
2013-01-07 08:50:00,40.6,32.0,30.81,WSW,251,3.0,3.0,44,0.00,BC,SCT,0.00,Misterhouse,2013-01-07 16:50:00,
2013-01-07 08:55:00,40.6,32.0,30.81,West,280,0.0,0.0,43,0.00,BC,SCT,0.00,Misterhouse,2013-01-07 16:55:00,
2013-01-07 09:00:00,40.6,32.0,30.81,West,273,0.0,0.0,40,0.00,BC,SCT,0.00,Misterhouse,2013-01-07 17:00:00,
2013-01-07 09:10:00,41.5,32.0,30.81,NW,311,3.0,3.0,33,0.00,BC,SCT,0.00,Misterhouse,2013-01-07 17:10:00,
2013-01-07 09:15:00,41.9,32.0,30.81,NW,319,4.0,4.0,30,0.00,BC,SCT,0.00,Misterhouse,2013-01-07 17:15:00,
2013-01-07 09:20:00,42.4,32.0,30.81,NW,310,5.0,5.0,29,0.00,BC,SCT,0.00,Misterhouse,2013-01-07 17:20:00,
2013-01-07 09:25:00,43.0,32.0,30.81,NNW,331,4.0,5.0,28,0.00,BC,SCT,0.00,Misterhouse,2013-01-07 17:25:00,
2013-01-07 09:30:00,43.5,32.0,30.81,NW,321,4.0,6.0,28,0.00,BC,SCT,0.00,Misterhouse,2013-01-07 17:30:00,
2013-01-07 09:35:00,43.7,32.0,30.81,NW,313,6.0,6.0,23,0.00,BC,SCT,0.00,Misterhouse,2013-01-07 17:35:00,
2013-01-07 09:40:00,44.1,32.0,30.81,NNW,336,6.0,6.0,20,0.00,BC,SCT,0.00,Misterhouse,2013-01-07 17:40:00,
2013-01-07 09:45:00,44.2,32.0,30.81,NW,315,5.0,6.0,20,0.00,BC,SCT,0.00,Misterhouse,2013-01-07 17:45:00,
2013-01-07 09:50:00,44.8,32.0,30.81,NNW,339,5.0,6.0,20,0.00,BC,SCT,0.00,Misterhouse,2013-01-07 17:50:00,
2013-01-07 09:55:00,45.1,32.0,30.81,NNW,335,5.0,5.0,20,0.00,BC,SCT,0.00,Misterhouse,2013-01-07 17:55:00,
2013-01-07 10:00:00,45.3,32.0,30.81,NNW,331,7.0,7.0,20,0.00,BC,SCT,0.00,Misterhouse,2013-01-07 18:00:00,
2013-01-07 10:05:00,45.5,32.0,30.84,NNW,327,4.0,5.0,20,0.00,MI,SKC,0.00,Misterhouse,2013-01-07 18:05:00,
2013-01-07 10:10:00,45.9,32.0,30.84,WNW,302,4.0,4.0,22,0.00,MI,SKC,0.00,Misterhouse,2013-01-07 18:10:00,
2013-01-07 10:15:00,45.9,32.0,30.84,NW,315,5.0,5.0,20,0.00,MI,SKC,0.00,Misterhouse,2013-01-07 18:15:00,
2013-01-07 10:20:00,46.0,32.0,30.81,WNW,303,4.0,5.0,22,0.00,MI,SKC,0.00,Misterhouse,2013-01-07 18:20:00,
2013-01-07 10:25:00,45.9,32.0,30.81,WNW,301,5.0,8.0,20,0.00,MI,SKC,0.00,Misterhouse,2013-01-07 18:25:00,
2013-01-07 10:30:00,45.9,32.0,30.81,NNW,329,3.0,6.0,20,0.00,MI,SKC,0.00,Misterhouse,2013-01-07 18:30:00,
2013-01-07 10:35:00,46.0,32.0,30.81,NW,311,6.0,6.0,17,0.00,MI,SKC,0.00,Misterhouse,2013-01-07 18:35:00,
2013-01-07 10:40:00,46.4,32.0,30.81,WNW,285,5.0,8.0,17,0.00,MI,SKC,0.00,Misterhouse,2013-01-07 18:40:00,
2013-01-07 10:45:00,46.4,32.0,30.81,NNW,334,4.0,5.0,17,0.00,MI,SKC,0.00,Misterhouse,2013-01-07 18:45:00,
2013-01-07 10:50:00,46.9,32.0,30.81,NW,311,3.0,3.0,17,0.00,MI,SKC,0.00,Misterhouse,2013-01-07 18:50:00,
2013-01-07 10:55:00,47.3,32.0,30.81,NW,324,5.0,5.0,17,0.00,MI,SKC,0.00,Misterhouse,2013-01-07 18:55:00,
2013-01-07 11:00:00,47.7,32.0,30.81,NNW,328,5.0,6.0,17,0.00,MI,SKC,0.00,Misterhouse,2013-01-07 19:00:00,
2013-01-07 11:05:00,47.8,32.0,30.81,NNW,328,5.0,5.0,17,0.00,MI,SKC,0.00,Misterhouse,2013-01-07 19:05:00,
2013-01-07 11:10:00,47.8,32.0,30.81,North,0,5.0,5.0,17,0.00,MI,SKC,0.00,Misterhouse,2013-01-07 19:10:00,
2013-01-07 11:15:00,48.0,32.0,30.81,NNW,337,8.0,8.0,17,0.00,MI,SKC,0.00,Misterhouse,2013-01-07 19:15:00,
2013-01-07 11:20:00,48.4,32.0,30.81,NW,316,5.0,5.0,16,0.00,MI,SKC,0.00,Misterhouse,2013-01-07 19:20:00,
2013-01-07 11:25:00,48.7,32.0,30.81,NW,321,4.0,6.0,16,0.00,MI,SKC,0.00,Misterhouse,2013-01-07 19:25:00,
2013-01-07 11:30:00,48.7,32.0,30.81,NNW,341,9.0,9.0,16,0.00,MI,SKC,0.00,Misterhouse,2013-01-07 19:30:00,
2013-01-07 11:35:00,48.7,32.0,30.81,NW,307,9.0,10.0,16,0.00,MI,SKC,0.00,Misterhouse,2013-01-07 19:35:00,
2013-01-07 11:40:00,48.6,32.0,30.81,NNW,348,5.0,6.0,16,0.00,MI,SKC,0.00,Misterhouse,2013-01-07 19:40:00,
2013-01-07 11:45:00,48.9,32.0,30.81,NW,319,7.0,8.0,16,0.00,MI,SKC,0.00,Misterhouse,2013-01-07 19:45:00,
2013-01-07 11:50:00,49.1,32.0,30.81,WNW,302,8.0,8.0,16,0.00,MI,SKC,0.00,Misterhouse,2013-01-07 19:50:00,
2013-01-07 11:55:00,48.9,32.0,30.81,NW,309,8.0,8.0,16,0.00,MI,SKC,0.00,Misterhouse,2013-01-07 19:55:00,
2013-01-07 12:00:00,49.3,32.0,30.81,NW,315,7.0,7.0,16,0.00,MI,SKC,0.00,Misterhouse,2013-01-07 20:00:00,
2013-01-07 12:05:00,49.3,32.0,30.78,NNW,336,7.0,7.0,16,0.00,PR,BKN,0.00,Misterhouse,2013-01-07 20:05:00,
2013-01-07 12:10:00,49.5,32.0,30.78,NW,325,6.0,6.0,16,0.00,PR,BKN,0.00,Misterhouse,2013-01-07 20:10:00,
2013-01-07 12:15:00,49.5,32.0,30.78,NW,315,8.0,9.0,16,0.00,PR,BKN,0.00,Misterhouse,2013-01-07 20:15:00,
2013-01-07 12:20:00,49.3,32.0,30.78,NW,305,6.0,6.0,16,0.00,PR,BKN,0.00,Misterhouse,2013-01-07 20:20:00,
2013-01-07 12:25:00,49.5,32.0,30.78,NNW,330,7.0,8.0,16,0.00,PR,BKN,0.00,Misterhouse,2013-01-07 20:25:00,
2013-01-07 12:30:00,49.1,32.0,30.78,NW,304,5.0,6.0,16,0.00,PR,BKN,0.00,Misterhouse,2013-01-07 20:30:00,
2013-01-07 12:35:00,49.5,32.0,30.78,WNW,291,6.0,6.0,16,0.00,PR,BKN,0.00,Misterhouse,2013-01-07 20:35:00,
2013-01-07 12:40:00,49.6,32.0,30.78,NNW,334,6.0,6.0,14,0.00,PR,BKN,0.00,Misterhouse,2013-01-07 20:40:00,
2013-01-07 12:50:00,48.9,32.0,30.78,NW,319,5.0,5.0,14,0.00,PR,BKN,0.00,Misterhouse,2013-01-07 20:50:00,
2013-01-07 12:55:00,48.6,32.0,30.78,WNW,286,7.0,7.0,14,0.00,PR,BKN,0.00,Misterhouse,2013-01-07 20:55:00,
2013-01-07 13:00:00,49.5,32.0,30.78,NNW,328,6.0,7.0,14,0.00,PR,BKN,0.00,Misterhouse,2013-01-07 21:00:00,
2013-01-07 13:10:00,50.5,32.0,30.75,NW,324,5.0,5.0,14,0.00,PR,BKN,0.00,Misterhouse,2013-01-07 21:10:00,
2013-01-07 13:20:00,51.1,32.0,30.75,NW,325,5.0,6.0,14,0.00,PR,BKN,0.00,Misterhouse,2013-01-07 21:20:00,
2013-01-07 13:25:00,51.1,32.0,30.75,WSW,258,3.0,3.0,14,0.00,PR,BKN,0.00,Misterhouse,2013-01-07 21:25:00,
2013-01-07 13:30:00,51.4,32.0,30.75,NNW,332,5.0,6.0,14,0.00,PR,BKN,0.00,Misterhouse,2013-01-07 21:30:00,
2013-01-07 13:40:00,51.6,32.0,30.75,NW,308,5.0,5.0,14,0.00,PR,BKN,0.00,Misterhouse,2013-01-07 21:40:00,
2013-01-07 13:50:00,52.9,32.0,30.75,NNW,345,3.0,6.0,13,0.00,PR,BKN,0.00,Misterhouse,2013-01-07 21:50:00,
2013-01-07 13:55:00,53.2,32.0,30.75,NW,323,4.0,4.0,13,0.00,PR,BKN,0.00,Misterhouse,2013-01-07 21:55:00,
2013-01-07 14:00:00,53.6,32.0,30.75,North,357,5.0,5.0,13,0.00,PR,BKN,0.00,Misterhouse,2013-01-07 22:00:00,
2013-01-07 14:10:00,54.1,32.0,30.75,NW,309,4.0,6.0,13,0.00,PR,BKN,0.00,Misterhouse,2013-01-07 22:10:00,
2013-01-07 14:15:00,54.1,32.0,30.75,NW,326,5.0,6.0,13,0.00,PR,BKN,0.00,Misterhouse,2013-01-07 22:15:00,
2013-01-07 14:20:00,54.5,32.0,30.75,NW,312,4.0,5.0,13,0.00,PR,BKN,0.00,Misterhouse,2013-01-07 22:20:00,
2013-01-07 14:25:00,54.7,32.0,30.75,North,0,6.0,6.0,13,0.00,PR,BKN,0.00,Misterhouse,2013-01-07 22:25:00,
2013-01-07 14:35:00,54.3,32.0,30.78,SW,231,0.0,5.0,13,0.00,PR,BKN,0.00,Misterhouse,2013-01-07 22:35:00,
2013-01-07 14:45:00,53.1,32.0,30.78,SSW,211,4.0,5.0,13,0.00,PR,BKN,0.00,Misterhouse,2013-01-07 22:45:00,
2013-01-07 14:55:00,53.2,32.0,30.75,South,188,5.0,5.0,13,0.00,PR,BKN,0.00,Misterhouse,2013-01-07 22:55:00,
2013-01-07 15:00:00,53.8,32.0,30.75,WSW,241,3.0,0.0,13,0.00,PR,BKN,0.00,Misterhouse,2013-01-07 23:00:00,
2013-01-07 15:05:00,54.5,32.0,30.75,NE,43,3.0,3.0,13,0.00,PR,BKN,0.00,Misterhouse,2013-01-07 23:05:00,
2013-01-07 15:10:00,55.0,32.0,30.75,SSW,207,4.0,6.0,13,0.00,PR,BKN,0.00,Misterhouse,2013-01-07 23:10:00,
2013-01-07 15:20:00,53.1,32.0,30.75,SW,235,0.0,0.0,13,0.00,PR,BKN,0.00,Misterhouse,2013-01-07 23:20:00,
2013-01-07 15:30:00,54.0,32.0,30.75,WSW,247,0.0,3.0,13,0.00,PR,BKN,0.00,Misterhouse,2013-01-07 23:30:00,
2013-01-07 15:40:00,52.2,32.0,30.75,West,260,3.0,3.0,13,0.00,PR,BKN,0.00,Misterhouse,2013-01-07 23:40:00,
2013-01-07 15:45:00,52.2,32.0,30.75,WSW,256,3.0,3.0,13,0.00,PR,BKN,0.00,Misterhouse,2013-01-07 23:45:00,
2013-01-07 15:50:00,52.9,32.0,30.78,WSW,246,4.0,4.0,13,0.00,PR,BKN,0.00,Misterhouse,2013-01-07 23:50:00,
2013-01-07 15:55:00,52.9,32.0,30.78,SW,224,2.0,0.0,13,0.00,PR,BKN,0.00,Misterhouse,2013-01-07 23:55:00,
2013-01-07 16:00:00,52.3,32.0,30.78,WSW,238,0.0,0.0,13,0.00,PR,BKN,0.00,Misterhouse,2013-01-08 00:00:00,
2013-01-07 16:10:00,50.9,32.0,30.78,WSW,249,0.0,3.0,14,0.00,PR,BKN,0.00,Misterhouse,2013-01-08 00:10:00,
2013-01-07 16:20:00,49.6,32.0,30.75,WSW,255,0.0,0.0,14,0.00,PR,BKN,0.00,Misterhouse,2013-01-08 00:20:00,
2013-01-07 16:30:00,48.6,32.0,30.75,West,259,0.0,6.0,14,0.00,PR,BKN,0.00,Misterhouse,2013-01-08 00:30:00,
2013-01-07 16:35:00,48.2,32.0,30.78,West,259,0.0,0.0,14,0.00,PR,BKN,0.00,Misterhouse,2013-01-08 00:35:00,
2013-01-07 16:40:00,47.8,32.0,30.78,West,259,0.0,0.0,14,0.00,PR,BKN,0.00,Misterhouse,2013-01-08 00:40:00,
2013-01-07 16:50:00,46.9,32.0,30.78,West,259,0.0,3.0,14,0.00,PR,BKN,0.00,Misterhouse,2013-01-08 00:50:00,
2013-01-07 17:00:00,46.4,32.0,30.78,West,259,0.0,0.0,14,0.00,PR,BKN,0.00,Misterhouse,2013-01-08 01:00:00,
2013-01-07 17:10:00,46.2,32.0,30.78,West,259,0.0,0.0,15,0.00,PR,BKN,0.00,Misterhouse,2013-01-08 01:10:00,
2013-01-07 17:15:00,46.0,32.0,30.78,West,259,0.0,0.0,15,0.00,PR,BKN,0.00,Misterhouse,2013-01-08 01:15:00,
2013-01-07 17:20:00,45.9,32.0,30.78,West,259,0.0,0.0,15,0.00,PR,BKN,0.00,Misterhouse,2013-01-08 01:20:00,
2013-01-07 17:25:00,45.5,32.0,30.78,WSW,258,0.0,0.0,15,0.00,PR,BKN,0.00,Misterhouse,2013-01-08 01:25:00,
2013-01-07 17:30:00,45.1,32.0,30.78,WSW,257,2.0,0.0,15,0.00,PR,BKN,0.00,Misterhouse,2013-01-08 01:30:00,
2013-01-07 17:40:00,45.0,32.0,30.78,WSW,251,0.0,0.0,15,0.00,PR,BKN,0.00,Misterhouse,2013-01-08 01:40:00,
2013-01-07 17:45:00,44.8,32.0,30.78,WSW,251,0.0,0.0,15,0.00,PR,BKN,0.00,Misterhouse,2013-01-08 01:45:00,
2013-01-07 17:50:00,44.6,32.0,30.78,WSW,251,0.0,0.0,15,0.00,PR,BKN,0.00,Misterhouse,2013-01-08 01:50:00,
2013-01-07 17:55:00,44.6,32.0,30.78,WSW,251,0.0,0.0,15,0.00,PR,BKN,0.00,Misterhouse,2013-01-08 01:55:00,
2013-01-07 18:00:00,44.8,32.0,30.78,WSW,251,0.0,0.0,15,0.00,PR,BKN,0.00,Misterhouse,2013-01-08 02:00:00,
2013-01-07 18:10:00,44.8,32.0,30.75,WSW,256,0.0,0.0,15,0.00,PR,BKN,0.00,Misterhouse,2013-01-08 02:10:00,
2013-01-07 18:15:00,44.6,32.0,30.75,WSW,256,0.0,0.0,15,0.00,PR,BKN,0.00,Misterhouse,2013-01-08 02:15:00,
2013-01-07 18:20:00,44.6,32.0,30.78,WSW,256,0.0,0.0,15,0.00,PR,BKN,0.00,Misterhouse,2013-01-08 02:20:00,
2013-01-07 18:25:00,44.6,32.0,30.78,WSW,256,0.0,0.0,15,0.00,PR,BKN,0.00,Misterhouse,2013-01-08 02:25:00,
2013-01-07 18:30:00,44.4,32.0,30.78,WSW,256,0.0,0.0,15,0.00,PR,BKN,0.00,Misterhouse,2013-01-08 02:30:00,
2013-01-07 18:35:00,44.6,32.0,30.78,WSW,256,0.0,0.0,15,0.00,PR,BKN,0.00,Misterhouse,2013-01-08 02:35:00,
2013-01-07 18:45:00,44.8,32.0,30.78,WSW,256,0.0,0.0,15,0.00,PR,BKN,0.00,Misterhouse,2013-01-08 02:45:00,
2013-01-07 18:50:00,44.8,32.0,30.78,WSW,256,0.0,0.0,15,0.00,PR,BKN,0.00,Misterhouse,2013-01-08 02:50:00,
2013-01-07 18:55:00,44.8,32.0,30.78,WSW,256,0.0,0.0,15,0.00,PR,BKN,0.00,Misterhouse,2013-01-08 02:55:00,
2013-01-07 19:00:00,44.8,32.0,30.78,WSW,256,0.0,0.0,15,0.00,PR,BKN,0.00,Misterhouse,2013-01-08 03:00:00,
2013-01-07 19:05:00,44.8,32.0,30.78,WSW,256,0.0,0.0,15,0.00,PR,BKN,0.00,Misterhouse,2013-01-08 03:05:00,
2013-01-07 19:15:00,44.4,32.0,30.78,WSW,256,0.0,0.0,15,0.00,PR,BKN,0.00,Misterhouse,2013-01-08 03:15:00,
2013-01-07 19:25:00,44.4,32.0,30.78,WSW,256,0.0,0.0,15,0.00,PR,BKN,0.00,Misterhouse,2013-01-08 03:25:00,
2013-01-07 19:30:00,44.4,32.0,30.78,WSW,256,0.0,0.0,15,0.00,PR,BKN,0.00,Misterhouse,2013-01-08 03:30:00,
2013-01-07 19:40:00,44.1,32.0,30.78,WSW,256,0.0,0.0,15,0.00,PR,BKN,0.00,Misterhouse,2013-01-08 03:40:00,
2013-01-07 19:45:00,44.2,32.0,30.78,WSW,256,0.0,0.0,15,0.00,PR,BKN,0.00,Misterhouse,2013-01-08 03:45:00,
2013-01-07 19:50:00,44.6,32.0,30.78,WSW,256,0.0,0.0,15,0.00,PR,BKN,0.00,Misterhouse,2013-01-08 03:50:00,
2013-01-07 19:55:00,44.8,32.0,30.78,WSW,256,0.0,0.0,15,0.00,PR,BKN,0.00,Misterhouse,2013-01-08 03:55:00,
2013-01-07 20:00:00,45.0,32.0,30.78,WSW,256,0.0,0.0,15,0.00,PR,BKN,0.00,Misterhouse,2013-01-08 04:00:00,
2013-01-07 20:05:00,44.8,32.0,30.78,WSW,256,0.0,0.0,15,0.00,PR,BKN,0.00,Misterhouse,2013-01-08 04:05:00,
2013-01-07 20:10:00,44.8,32.0,30.78,WSW,256,0.0,0.0,15,0.00,PR,BKN,0.00,Misterhouse,2013-01-08 04:10:00,
2013-01-07 20:15:00,44.6,32.0,30.78,WSW,256,0.0,0.0,15,0.00,PR,BKN,0.00,Misterhouse,2013-01-08 04:15:00,
2013-01-07 20:20:00,44.2,32.0,30.78,WSW,256,2.0,2.0,15,0.00,PR,BKN,0.00,Misterhouse,2013-01-08 04:20:00,
2013-01-07 20:25:00,44.2,32.0,30.78,WSW,256,0.0,0.0,15,0.00,PR,BKN,0.00,Misterhouse,2013-01-08 04:25:00,
2013-01-07 20:30:00,44.4,32.0,30.78,WSW,256,0.0,0.0,15,0.00,PR,BKN,0.00,Misterhouse,2013-01-08 04:30:00,
2013-01-07 20:35:00,44.6,32.0,30.78,WSW,256,0.0,0.0,15,0.00,PR,BKN,0.00,Misterhouse,2013-01-08 04:35:00,
2013-01-07 20:40:00,44.8,32.0,30.78,WSW,256,0.0,0.0,15,0.00,PR,BKN,0.00,Misterhouse,2013-01-08 04:40:00,
2013-01-07 20:45:00,44.8,32.0,30.78,WSW,256,0.0,0.0,15,0.00,PR,BKN,0.00,Misterhouse,2013-01-08 04:45:00,
2013-01-07 20:50:00,44.4,32.0,30.78,WSW,256,0.0,0.0,15,0.00,PR,BKN,0.00,Misterhouse,2013-01-08 04:50:00,
2013-01-07 20:55:00,44.1,32.0,30.78,WSW,256,0.0,0.0,15,0.00,PR,BKN,0.00,Misterhouse,2013-01-08 04:55:00,
2013-01-07 21:05:00,44.4,32.0,30.78,WSW,256,0.0,0.0,15,0.00,PR,BKN,0.00,Misterhouse,2013-01-08 05:05:00,
2013-01-07 21:10:00,44.4,32.0,30.78,WSW,256,0.0,0.0,15,0.00,PR,BKN,0.00,Misterhouse,2013-01-08 05:10:00,
2013-01-07 21:15:00,44.6,32.0,30.78,WSW,256,0.0,0.0,15,0.00,PR,BKN,0.00,Misterhouse,2013-01-08 05:15:00,
2013-01-07 21:20:00,44.6,32.0,30.78,WSW,256,0.0,0.0,15,0.00,PR,BKN,0.00,Misterhouse,2013-01-08 05:20:00,
2013-01-07 21:25:00,44.2,32.0,30.78,WSW,256,0.0,0.0,15,0.00,PR,BKN,0.00,Misterhouse,2013-01-08 05:25:00,
2013-01-07 21:30:00,44.1,32.0,30.78,WSW,256,0.0,0.0,15,0.00,PR,BKN,0.00,Misterhouse,2013-01-08 05:30:00,
2013-01-07 21:35:00,43.7,32.0,30.78,WSW,256,0.0,0.0,15,0.00,PR,BKN,0.00,Misterhouse,2013-01-08 05:35:00,
2013-01-07 21:40:00,43.5,32.0,30.78,WSW,256,0.0,0.0,15,0.00,PR,BKN,0.00,Misterhouse,2013-01-08 05:40:00,
2013-01-07 21:45:00,43.9,32.0,30.78,WSW,256,0.0,0.0,15,0.00,PR,BKN,0.00,Misterhouse,2013-01-08 05:45:00,
2013-01-07 21:50:00,44.6,32.0,30.78,WSW,256,0.0,0.0,15,0.00,PR,BKN,0.00,Misterhouse,2013-01-08 05:50:00,
2013-01-07 21:55:00,45.0,32.0,30.78,WSW,256,0.0,0.0,15,0.00,PR,BKN,0.00,Misterhouse,2013-01-08 05:55:00,
2013-01-07 22:00:00,44.8,32.0,30.78,WSW,256,0.0,0.0,15,0.00,PR,BKN,0.00,Misterhouse,2013-01-08 06:00:00,
2013-01-07 22:05:00,44.6,32.0,30.81,WSW,256,0.0,0.0,15,0.00,PR,BKN,0.00,Misterhouse,2013-01-08 06:05:00,
2013-01-07 22:10:00,44.2,32.0,30.81,WSW,256,0.0,0.0,15,0.00,PR,BKN,0.00,Misterhouse,2013-01-08 06:10:00,
2013-01-07 22:15:00,43.7,32.0,30.81,WSW,256,0.0,3.0,15,0.00,PR,BKN,0.00,Misterhouse,2013-01-08 06:15:00,
2013-01-07 22:20:00,43.2,32.0,30.81,WSW,256,0.0,0.0,15,0.00,PR,BKN,0.00,Misterhouse,2013-01-08 06:20:00,
2013-01-07 22:25:00,43.5,32.0,30.81,WSW,255,0.0,0.0,15,0.00,PR,BKN,0.00,Misterhouse,2013-01-08 06:25:00,
2013-01-07 22:30:00,43.7,32.0,30.81,WSW,255,0.0,0.0,15,0.00,PR,BKN,0.00,Misterhouse,2013-01-08 06:30:00,
2013-01-07 22:35:00,44.6,32.0,30.81,WSW,255,0.0,0.0,15,0.00,PR,BKN,0.00,Misterhouse,2013-01-08 06:35:00,
2013-01-07 22:40:00,45.0,32.0,30.81,WSW,255,0.0,0.0,15,0.00,PR,BKN,0.00,Misterhouse,2013-01-08 06:40:00,
2013-01-07 22:45:00,44.8,32.0,30.81,WSW,255,0.0,0.0,15,0.00,PR,BKN,0.00,Misterhouse,2013-01-08 06:45:00,
2013-01-07 22:50:00,44.6,32.0,30.81,WSW,255,0.0,0.0,15,0.00,PR,BKN,0.00,Misterhouse,2013-01-08 06:50:00,
2013-01-07 23:00:00,44.4,32.0,30.81,WSW,255,0.0,0.0,15,0.00,PR,BKN,0.00,Misterhouse,2013-01-08 07:00:00,
2013-01-07 23:10:00,45.0,32.0,30.81,WSW,255,0.0,0.0,15,0.00,PR,BKN,0.00,Misterhouse,2013-01-08 07:10:00,
2013-01-07 23:15:00,45.0,32.0,30.81,WSW,255,0.0,0.0,15,0.00,PR,BKN,0.00,Misterhouse,2013-01-08 07:15:00,
2013-01-07 23:20:00,44.8,32.0,30.81,WSW,255,0.0,0.0,15,0.00,PR,BKN,0.00,Misterhouse,2013-01-08 07:20:00,
2013-01-07 23:25:00,44.1,32.0,30.81,WSW,255,0.0,0.0,15,0.00,PR,BKN,0.00,Misterhouse,2013-01-08 07:25:00,
2013-01-07 23:30:00,44.1,32.0,30.81,WSW,255,0.0,0.0,15,0.00,PR,BKN,0.00,Misterhouse,2013-01-08 07:30:00,
2013-01-07 23:35:00,44.8,32.0,30.81,WSW,255,0.0,0.0,15,0.00,PR,BKN,0.00,Misterhouse,2013-01-08 07:35:00,
2013-01-07 23:40:00,44.8,32.0,30.81,WSW,255,0.0,0.0,15,0.00,PR,BKN,0.00,Misterhouse,2013-01-08 07:40:00,
2013-01-07 23:50:00,44.8,32.0,30.81,WSW,255,0.0,0.0,15,0.00,PR,BKN,0.00,Misterhouse,2013-01-08 07:50:00,
2013-01-07 23:55:00,45.1,32.0,30.81,WSW,255,0.0,0.0,15,0.00,PR,BKN,0.00,Misterhouse,2013-01-08 07:55:00,